world map with LSMU marked

LSMU - Airport

This information may not be accurate or current and is not valid for navigation or flight planning. No warranty of fitness for any purpose is made or implied.

flag of Nidwaldenflag of Switzerland

Donate via PayPal

Additional information is available on the NEW Great Circle Mapper

Location
City:  Buochs, Nidwalden, Switzerland
Name:Buochs Airport - Swiss Air Force
ICAO:LSMU

Details
Type:Airport (Aerodrome, Airfield)
Use:Military
Latitude:46°58'28"N (46.974444)
Longitude:8°23'49"E (8.396944)
Elevation:1475 ft (450 m)
Runways:1
Longest:6562 × 131 ft (2000 × 40 m)

Time
Timezone:UTC+1 (DST+4)
Local Time:

Weather
METAR:LSZC  120650Z 26004KT 220V290 CAVOK M02/M07 Q1022

Related Locations
Nearby:
Farthest:CHT: 12114 mi / 19495 km
Waitangi [Tuuta], CIT, NZ

Find:

   beyond  
but within

Other Information
Maps:
Links:
Sources:

  


 


Great Circle Mapper   Great Circle Mapper
Great Circle Mapper FAQ   Great Circle Mapper FAQ
  Karl's Home Page
KLSē   KLSē Home
   GC on Facebook
Airlines of the World   Airlines of the World
Donate via PayPal


Copyright © 2004-2018, Karl L. Swartz. All rights reserved.
All trademarks mentioned herein belong to their respective owners.

Please see credits for attribution and copyright information.

Karl Swartz <karl@kls2.com>
  Powered by FreeBSD
Valid HTML 4.01!
Labeled with ICRA
hCard Microformat
Geo Microformat